Time;durP1;ratioP1;P1;durP2;ratioP2;P2;SDS_P1;SDS_P2;PMS_P1;PMS_P2;Temp;Humidity;BMP_temperature;BMP_pressure;BME280_temperature;BME280_humidity;BME280_pressure;Samples;Min_cycle;Max_cycle;Signal;HPM_P1;HPM_P2
2020/12/25 00:00:46;;;;;;;0.52;0.52;;;5.10;99.90;;;;;;4994562;28;20026;-74
2020/12/25 00:03:15;;;;;;;0.60;0.60;;;5.10;99.90;;;;;;5010847;28;20022;-75
2020/12/25 00:05:45;;;;;;;0.43;0.43;;;5.10;99.90;;;;;;4994403;28;20112;-75
2020/12/25 00:08:13;;;;;;;0.50;0.50;;;5.10;99.90;;;;;;5010505;28;20022;-75
2020/12/25 00:10:42;;;;;;;0.45;0.45;;;5.20;99.90;;;;;;5012042;28;20029;-75
2020/12/25 00:13:08;;;;;;;0.60;0.60;;;5.10;99.90;;;;;;5010518;28;20026;-75
2020/12/25 00:15:34;;;;;;;0.52;0.50;;;5.20;99.90;;;;;;4994134;28;20384;-74
2020/12/25 00:18:00;;;;;;;0.40;0.40;;;5.10;99.90;;;;;;5011635;28;20041;-75
2020/12/25 00:20:25;;;;;;;0.40;0.40;;;5.10;99.90;;;;;;5010476;28;20030;-74
2020/12/25 00:22:51;;;;;;;0.38;0.38;;;5.00;99.90;;;;;;5011565;28;20061;-75
2020/12/25 00:25:17;;;;;;;0.52;0.52;;;5.10;99.90;;;;;;5011767;28;20035;-74
2020/12/25 00:27:43;;;;;;;0.40;0.40;;;5.00;99.90;;;;;;5011512;28;20038;-74
2020/12/25 00:30:09;;;;;;;0.73;0.60;;;5.00;99.90;;;;;;5011986;28;20033;-74
2020/12/25 00:32:34;;;;;;;0.47;0.47;;;5.00;99.90;;;;;;5011353;28;20382;-75
2020/12/25 00:35:00;;;;;;;0.55;0.55;;;5.10;99.90;;;;;;5011706;28;20040;-75
2020/12/25 00:37:26;;;;;;;0.55;0.55;;;5.00;99.90;;;;;;5010046;28;20076;-75
2020/12/25 00:39:51;;;;;;;0.82;0.50;;;5.00;99.90;;;;;;5011423;28;20129;-74
2020/12/25 00:42:17;;;;;;;0.40;0.40;;;4.90;99.90;;;;;;5011309;28;20048;-74
2020/12/25 00:44:43;;;;;;;0.40;0.40;;;4.90;99.90;;;;;;5011303;28;20039;-75
2020/12/25 00:47:09;;;;;;;0.45;0.45;;;4.90;99.90;;;;;;5011610;28;20410;-75
2020/12/25 00:49:34;;;;;;;0.50;0.50;;;5.00;99.90;;;;;;5011119;28;20061;-74
2020/12/25 00:52:00;;;;;;;0.93;0.60;;;4.90;99.90;;;;;;5011483;28;20364;-75
2020/12/25 00:54:26;;;;;;;0.63;0.57;;;4.90;99.90;;;;;;5011109;28;20030;-74
2020/12/25 00:56:51;;;;;;;0.55;0.55;;;4.90;99.90;;;;;;5011513;28;20076;-74
2020/12/25 00:59:17;;;;;;;0.40;0.40;;;4.90;99.90;;;;;;5011129;28;20424;-75
2020/12/25 01:01:43;;;;;;;0.55;0.55;;;4.90;99.90;;;;;;5011119;28;20036;-74
2020/12/25 01:04:08;;;;;;;0.47;0.47;;;4.90;99.90;;;;;;5011334;28;20029;-75
2020/12/25 01:06:34;;;;;;;0.60;0.60;;;4.90;99.90;;;;;;5010180;28;20152;-75
2020/12/25 01:09:00;;;;;;;0.50;0.50;;;5.10;99.90;;;;;;5011096;28;20030;-74
2020/12/25 01:11:26;;;;;;;0.40;0.40;;;5.20;99.90;;;;;;5010549;28;20026;-75
2020/12/25 01:13:52;;;;;;;1.10;0.43;;;5.30;99.90;;;;;;5011535;28;20026;-75
2020/12/25 01:16:18;;;;;;;0.50;0.50;;;5.30;99.90;;;;;;5012938;28;20022;-75
2020/12/25 01:18:46;;;;;;;0.85;0.60;;;5.30;99.90;;;;;;5012493;28;20026;-77
2020/12/25 01:21:12;;;;;;;0.68;0.50;;;5.40;99.90;;;;;;5011452;28;20434;-76
2020/12/25 01:23:39;;;;;;;0.47;0.47;;;5.20;99.90;;;;;;5010705;28;20026;-76
2020/12/25 01:26:07;;;;;;;0.55;0.55;;;4.90;99.90;;;;;;5010399;28;20466;-76
2020/12/25 01:28:34;;;;;;;0.60;0.60;;;4.70;99.90;;;;;;5010193;28;20058;-76
2020/12/25 01:31:02;;;;;;;4.75;0.80;;;4.60;99.90;;;;;;5010893;28;20493;-75
2020/12/25 01:33:33;;;;;;;0.85;0.60;;;4.60;99.90;;;;;;5009877;28;20065;-74
2020/12/25 01:35:59;;;;;;;1.13;0.65;;;4.60;99.90;;;;;;5012816;28;20046;-74
2020/12/25 01:38:25;;;;;;;0.50;0.50;;;4.70;99.90;;;;;;5014848;28;20026;-74
2020/12/25 01:40:51;;;;;;;0.60;0.60;;;4.80;99.90;;;;;;5014577;28;20091;-74
2020/12/25 01:43:16;;;;;;;0.60;0.60;;;5.00;99.90;;;;;;5014632;28;20053;-74
2020/12/25 01:45:42;;;;;;;0.80;0.80;;;5.00;99.90;;;;;;5013016;28;20087;-74
2020/12/25 01:48:08;;;;;;;0.70;0.70;;;4.90;99.90;;;;;;5014611;28;20385;-74
2020/12/25 01:50:35;;;;;;;1.60;0.75;;;5.10;99.90;;;;;;5013036;28;20022;-75
2020/12/25 01:53:02;;;;;;;0.90;0.90;;;5.10;99.90;;;;;;5013246;28;20176;-75
2020/12/25 01:55:31;;;;;;;0.70;0.70;;;5.00;99.90;;;;;;5012993;28;20095;-75
2020/12/25 01:57:59;;;;;;;1.17;1.13;;;5.00;99.90;;;;;;4996883;28;20022;-75
2020/12/25 02:00:27;;;;;;;1.00;0.90;;;5.00;99.90;;;;;;5014367;28;20026;-74
2020/12/25 02:02:52;;;;;;;1.48;1.38;;;5.00;99.90;;;;;;5014272;28;20029;-75
2020/12/25 02:05:18;;;;;;;1.35;1.10;;;4.90;99.90;;;;;;5013012;28;20404;-75
2020/12/25 02:07:45;;;;;;;1.20;1.10;;;5.00;99.90;;;;;;5012822;28;20029;-75
2020/12/25 02:10:11;;;;;;;1.30;1.20;;;5.10;99.90;;;;;;5014183;28;20367;-74
2020/12/25 02:12:37;;;;;;;1.00;1.00;;;5.10;99.90;;;;;;5013952;28;20402;-74
2020/12/25 02:15:05;;;;;;;1.25;1.15;;;5.00;99.90;;;;;;5012806;28;20101;-75
2020/12/25 02:17:30;;;;;;;1.30;1.20;;;4.80;99.90;;;;;;5014169;28;20109;-75
2020/12/25 02:19:56;;;;;;;1.75;1.00;;;4.90;99.90;;;;;;5014408;28;20061;-75
2020/12/25 02:22:22;;;;;;;1.27;1.20;;;4.90;99.90;;;;;;5013818;28;20064;-75
2020/12/25 02:24:47;;;;;;;1.00;1.00;;;5.10;99.90;;;;;;5013920;28;20053;-75
2020/12/25 02:27:13;;;;;;;1.48;1.38;;;5.10;99.90;;;;;;5012389;28;20030;-75
2020/12/25 02:29:39;;;;;;;1.52;1.42;;;5.00;99.90;;;;;;5013636;28;20081;-75
2020/12/25 02:32:04;;;;;;;1.48;1.38;;;5.10;99.90;;;;;;5013870;28;20378;-74
2020/12/25 02:34:30;;;;;;;2.00;1.90;;;5.10;99.90;;;;;;5013596;28;20033;-74
2020/12/25 02:36:56;;;;;;;1.70;1.60;;;4.90;99.90;;;;;;5013608;28;20018;-74
2020/12/25 02:39:22;;;;;;;1.73;1.63;;;4.80;99.90;;;;;;5012150;28;20058;-75
2020/12/25 02:41:47;;;;;;;1.90;1.80;;;4.90;99.90;;;;;;5012334;28;20172;-75
2020/12/25 02:44:13;;;;;;;1.83;1.73;;;4.80;99.90;;;;;;5013031;28;20034;-75
2020/12/25 02:46:39;;;;;;;2.15;1.95;;;4.90;99.90;;;;;;5012388;28;20025;-73
2020/12/25 02:49:04;;;;;;;2.28;1.95;;;4.90;99.90;;;;;;5013163;28;20077;-75
2020/12/25 02:51:30;;;;;;;1.73;1.63;;;5.00;99.90;;;;;;5013542;28;20498;-75
2020/12/25 02:53:55;;;;;;;2.35;2.15;;;5.00;99.90;;;;;;4995783;28;20076;-75
2020/12/25 02:56:21;;;;;;;1.67;1.58;;;4.90;99.90;;;;;;5012233;28;20113;-75
2020/12/25 02:58:47;;;;;;;4.45;2.30;;;4.80;99.90;;;;;;5012987;28;20390;-74
2020/12/25 03:01:14;;;;;;;2.22;2.03;;;4.60;99.90;;;;;;5012097;28;20044;-74
2020/12/25 03:03:40;;;;;;;2.78;2.33;;;4.50;99.90;;;;;;5013124;28;20032;-75
2020/12/25 03:06:07;;;;;;;2.03;1.90;;;4.40;99.90;;;;;;5012006;28;20033;-75
2020/12/25 03:08:33;;;;;;;2.60;2.40;;;4.40;99.90;;;;;;5012998;28;20044;-75
2020/12/25 03:10:59;;;;;;;2.42;2.22;;;4.40;99.90;;;;;;5012060;28;20481;-74
2020/12/25 03:13:25;;;;;;;2.13;1.92;;;4.40;99.90;;;;;;5013337;28;20018;-75
2020/12/25 03:15:51;;;;;;;1.65;1.55;;;4.40;99.90;;;;;;5013536;28;20054;-75
2020/12/25 03:18:18;;;;;;;1.80;1.70;;;4.30;99.90;;;;;;5012291;28;20433;-73
2020/12/25 03:20:44;;;;;;;1.85;1.75;;;4.30;99.90;;;;;;5013032;28;20406;-75
2020/12/25 03:23:09;;;;;;;2.10;1.95;;;4.30;99.90;;;;;;5013113;28;20029;-74
2020/12/25 03:25:35;;;;;;;1.73;1.63;;;4.30;99.90;;;;;;5012661;28;20034;-75
2020/12/25 03:28:01;;;;;;;2.53;2.33;;;4.30;99.90;;;;;;5011369;28;20030;-75
2020/12/25 03:30:26;;;;;;;2.53;2.33;;;4.20;99.90;;;;;;5011496;28;20018;-74
2020/12/25 03:32:52;;;;;;;3.20;2.90;;;4.00;99.90;;;;;;5012802;28;20034;-74
2020/12/25 03:35:18;;;;;;;3.47;3.17;;;3.80;99.90;;;;;;5011334;28;20099;-74
2020/12/25 03:37:43;;;;;;;3.25;2.95;;;3.80;99.90;;;;;;5011371;28;20482;-75
2020/12/25 03:40:10;;;;;;;3.00;2.80;;;3.80;99.90;;;;;;5011648;28;20034;-75
2020/12/25 03:42:36;;;;;;;2.95;2.65;;;3.60;99.90;;;;;;5010235;28;20089;-74
2020/12/25 03:45:03;;;;;;;2.25;2.05;;;3.50;99.90;;;;;;5011218;28;20477;-74
2020/12/25 03:47:29;;;;;;;1.80;1.70;;;3.40;99.90;;;;;;5011619;28;20026;-75
2020/12/25 03:49:54;;;;;;;2.10;1.90;;;3.30;99.90;;;;;;5009952;28;20033;-74
2020/12/25 03:52:21;;;;;;;2.75;2.20;;;3.30;99.90;;;;;;5011342;28;20548;-75
2020/12/25 03:54:47;;;;;;;2.10;1.90;;;3.10;99.90;;;;;;5011306;28;20026;-75
2020/12/25 03:57:13;;;;;;;1.42;1.27;;;3.00;99.90;;;;;;5011034;28;20084;-74
2020/12/25 03:59:38;;;;;;;1.73;1.63;;;3.00;99.90;;;;;;5009815;28;20544;-74
2020/12/25 04:02:04;;;;;;;1.83;1.50;;;3.10;99.90;;;;;;5009711;28;20049;-74
2020/12/25 04:04:30;;;;;;;2.17;2.08;;;3.10;99.90;;;;;;5011189;28;20508;-74
2020/12/25 04:06:55;;;;;;;1.75;1.65;;;3.10;99.90;;;;;;5011044;28;20033;-75
2020/12/25 04:09:21;;;;;;;1.10;1.10;;;3.20;99.90;;;;;;5011157;28;20774;-75
2020/12/25 04:11:50;;;;;;;1.50;1.40;;;3.10;99.90;;;;;;5009514;28;20029;-74
2020/12/25 04:14:17;;;;;;;1.60;1.50;;;3.30;99.90;;;;;;5010999;28;20026;-75
2020/12/25 04:16:43;;;;;;;1.67;1.33;;;3.20;99.90;;;;;;5010804;28;20021;-74
2020/12/25 04:19:08;;;;;;;1.48;1.38;;;3.10;99.90;;;;;;5011126;28;20508;-75
2020/12/25 04:21:35;;;;;;;1.60;1.50;;;3.20;99.90;;;;;;5011181;28;20030;-75
2020/12/25 04:24:01;;;;;;;1.65;1.55;;;3.20;99.90;;;;;;5009692;28;20076;-75
2020/12/25 04:26:26;;;;;;;1.90;1.80;;;3.10;99.90;;;;;;4993185;28;20061;-74
2020/12/25 04:28:52;;;;;;;2.38;2.13;;;3.00;99.90;;;;;;5010762;28;20433;-74
2020/12/25 04:31:18;;;;;;;1.70;1.60;;;2.90;99.90;;;;;;5010853;28;20057;-74
2020/12/25 04:33:43;;;;;;;4.53;2.13;;;2.90;99.90;;;;;;5009347;28;20050;-74
2020/12/25 04:36:09;;;;;;;1.90;1.80;;;2.80;99.90;;;;;;5009555;28;20096;-74
2020/12/25 04:38:35;;;;;;;2.17;1.98;;;2.90;99.90;;;;;;5010612;28;20100;-74
2020/12/25 04:41:01;;;;;;;2.17;1.90;;;2.90;99.90;;;;;;4992393;28;558175;-77
2020/12/25 04:43:28;;;;;;;2.03;1.83;;;2.80;99.90;;;;;;5012793;28;20080;-76
2020/12/25 04:45:54;;;;;;;3.33;2.40;;;2.70;99.90;;;;;;5011047;28;20022;-76
2020/12/25 04:48:20;;;;;;;2.35;2.15;;;2.80;99.90;;;;;;5012320;28;20025;-77
2020/12/25 04:50:46;;;;;;;2.92;2.28;;;2.70;99.90;;;;;;5012624;28;20072;-76
2020/12/25 04:53:12;;;;;;;2.35;2.15;;;2.60;99.90;;;;;;5012473;28;20037;-76
2020/12/25 04:55:38;;;;;;;2.33;2.13;;;2.60;99.90;;;;;;5011262;28;20025;-76
2020/12/25 04:58:03;;;;;;;2.35;1.85;;;2.50;99.90;;;;;;5012488;28;20040;-76
2020/12/25 05:00:30;;;;;;;2.47;2.28;;;2.60;99.90;;;;;;5012683;28;20044;-76
2020/12/25 05:02:56;;;;;;;2.22;2.03;;;2.70;99.90;;;;;;5012639;28;20521;-77
2020/12/25 05:05:31;;;;;;;2.55;2.17;;;2.70;99.90;;;;;;5011174;28;20024;-77
2020/12/25 05:07:58;;;;;;;2.05;1.85;;;2.70;99.90;;;;;;5011566;28;20018;-78
2020/12/25 05:10:25;;;;;;;1.98;1.77;;;2.70;99.90;;;;;;5014105;28;20029;-77
2020/12/25 05:12:51;;;;;;;2.33;1.98;;;2.50;99.90;;;;;;5017168;28;20058;-77
2020/12/25 05:15:17;;;;;;;1.85;1.70;;;2.50;99.90;;;;;;5016708;28;20537;-77
2020/12/25 05:17:43;;;;;;;4.22;1.88;;;2.50;99.90;;;;;;5015035;28;20061;-77
2020/12/25 05:20:09;;;;;;;1.77;1.67;;;2.60;99.90;;;;;;5015150;28;20076;-77
2020/12/25 05:22:36;;;;;;;2.58;1.58;;;2.60;99.90;;;;;;5015234;28;20061;-77
2020/12/25 05:25:08;;;;;;;2.72;1.83;;;2.70;99.90;;;;;;5014840;28;20034;-77
2020/12/25 05:27:35;;;;;;;1.60;1.50;;;2.50;99.90;;;;;;5016665;28;20029;-77
2020/12/25 05:30:02;;;;;;;1.42;1.33;;;2.60;99.90;;;;;;5015785;28;20033;-77
2020/12/25 05:32:30;;;;;;;1.95;1.60;;;2.50;99.90;;;;;;5015207;28;20212;-77
2020/12/25 05:34:58;;;;;;;1.42;1.33;;;2.50;99.90;;;;;;5014511;28;20510;-77
2020/12/25 05:37:36;;;;;;;1.80;1.70;;;2.70;99.90;;;;;;5014959;28;20033;-76
2020/12/25 05:40:09;;;;;;;1.60;1.50;;;2.60;99.90;;;;;;5015509;28;20045;-77
2020/12/25 05:42:45;;;;;;;3.80;2.13;;;2.40;99.90;;;;;;5014772;28;20061;-77
2020/12/25 05:45:10;;;;;;;1.50;1.40;;;2.50;99.90;;;;;;5015885;28;20437;-77
2020/12/25 05:47:36;;;;;;;1.75;1.60;;;2.50;99.90;;;;;;5014280;28;20072;-77
2020/12/25 05:50:02;;;;;;;1.77;1.67;;;2.60;99.90;;;;;;5015280;28;20104;-77
2020/12/25 05:52:28;;;;;;;2.03;1.70;;;2.70;99.90;;;;;;5014282;28;20477;-76
2020/12/25 05:54:57;;;;;;;1.98;1.67;;;2.80;99.90;;;;;;4998115;28;20032;-76
2020/12/25 05:57:24;;;;;;;1.60;1.40;;;2.90;99.90;;;;;;5014496;28;20564;-77
2020/12/25 05:59:52;;;;;;;1.90;1.67;;;2.80;99.90;;;;;;5014377;28;20025;-77
2020/12/25 06:02:17;;;;;;;1.50;1.40;;;2.80;99.90;;;;;;5014135;28;20425;-77
2020/12/25 06:04:45;;;;;;;1.58;1.48;;;2.70;99.90;;;;;;5015547;28;20034;-77
2020/12/25 06:07:14;;;;;;;1.40;1.30;;;2.80;99.90;;;;;;4997546;28;20127;-77
2020/12/25 06:09:44;;;;;;;3.53;1.50;;;2.90;99.90;;;;;;5014250;28;20112;-76
2020/12/25 06:12:14;;;;;;;1.13;1.13;;;3.00;99.90;;;;;;5014050;28;20049;-77
2020/12/25 06:14:40;;;;;;;1.95;1.65;;;2.90;99.90;;;;;;4997594;28;20121;-77
2020/12/25 06:17:14;;;;;;;1.67;1.58;;;2.80;99.90;;;;;;5013818;28;20106;-77
2020/12/25 06:20:01;;;;;;;3.20;2.25;;;2.70;99.90;;;;;;5015461;28;20105;-78
2020/12/25 06:22:40;;;;;;;2.67;1.98;;;2.70;99.90;;;;;;5013770;28;20030;-77
2020/12/25 06:25:12;;;;;;;1.55;1.45;;;2.80;99.90;;;;;;5015311;28;20025;-77
2020/12/25 06:27:55;;;;;;;1.88;1.52;;;2.80;99.90;;;;;;5015063;28;20053;-77
2020/12/25 06:30:39;;;;;;;1.58;1.48;;;2.80;99.90;;;;;;5015407;28;20092;-77
2020/12/25 06:33:05;;;;;;;1.50;1.40;;;2.80;99.90;;;;;;5013448;28;20029;-76
2020/12/25 06:35:37;;;;;;;1.90;1.73;;;2.80;99.90;;;;;;5013854;28;20032;-77
2020/12/25 06:38:10;;;;;;;1.60;1.50;;;2.80;99.90;;;;;;5013535;28;20239;-77
2020/12/25 06:40:36;;;;;;;2.38;1.60;;;3.00;99.90;;;;;;5015040;28;20034;-77
2020/12/25 06:43:03;;;;;;;1.80;1.70;;;2.70;99.90;;;;;;5014669;28;20026;-77
2020/12/25 06:45:32;;;;;;;3.53;1.77;;;2.90;99.90;;;;;;5014929;28;20022;-77
2020/12/25 06:48:11;;;;;;;2.45;2.25;;;3.00;99.90;;;;;;5013738;28;20102;-77
2020/12/25 06:50:42;;;;;;;1.65;1.55;;;2.90;99.90;;;;;;5013762;28;20022;-77
2020/12/25 06:53:08;;;;;;;1.77;1.67;;;2.90;99.90;;;;;;5014725;28;20042;-77
2020/12/25 06:55:44;;;;;;;2.30;1.55;;;2.90;99.90;;;;;;5015091;28;20026;-77
2020/12/25 06:58:18;;;;;;;2.00;1.80;;;2.90;99.90;;;;;;5015029;28;20425;-76
2020/12/25 07:00:44;;;;;;;2.20;2.00;;;3.00;99.90;;;;;;5013844;28;20022;-77
2020/12/25 07:03:13;;;;;;;2.55;2.35;;;2.90;99.90;;;;;;5013556;28;20084;-77
2020/12/25 07:05:47;;;;;;;3.42;2.38;;;2.90;99.90;;;;;;5014589;28;20120;-78
2020/12/25 07:08:39;;;;;;;2.92;2.38;;;2.90;99.90;;;;;;5012965;28;20042;-77
2020/12/25 07:11:09;;;;;;;4.18;3.15;;;2.90;99.90;;;;;;5014411;28;20045;-76
2020/12/25 07:13:37;;;;;;;3.35;2.85;;;3.00;99.90;;;;;;5012894;28;20478;-78
2020/12/25 07:16:04;;;;;;;2.10;1.90;;;3.10;99.90;;;;;;4996616;28;20030;-78
2020/12/25 07:18:30;;;;;;;5.97;3.60;;;3.00;99.90;;;;;;5012696;28;20041;-77
2020/12/25 07:20:57;;;;;;;4.43;3.25;;;2.80;99.90;;;;;;5014291;28;20105;-77
2020/12/25 07:23:22;;;;;;;4.57;2.95;;;2.70;99.90;;;;;;5014137;28;20033;-77
2020/12/25 07:25:48;;;;;;;6.05;3.58;;;2.70;99.90;;;;;;5014155;28;20030;-77
2020/12/25 07:28:14;;;;;;;3.10;2.70;;;2.80;99.90;;;;;;5013952;28;20478;-76
2020/12/25 07:30:40;;;;;;;3.47;2.97;;;2.90;99.90;;;;;;5012453;28;20024;-77
2020/12/25 07:33:07;;;;;;;4.18;3.47;;;3.00;99.90;;;;;;5014047;28;20017;-77
2020/12/25 07:35:32;;;;;;;3.47;3.17;;;2.90;99.90;;;;;;5013557;28;20028;-76
2020/12/25 07:37:58;;;;;;;3.88;3.47;;;2.90;99.90;;;;;;4996189;28;20038;-77
2020/12/25 07:40:25;;;;;;;4.60;3.67;;;2.80;99.90;;;;;;5012256;28;20137;-76
2020/12/25 07:42:51;;;;;;;3.70;3.03;;;2.90;99.90;;;;;;5014108;28;20048;-77
2020/12/25 07:45:17;;;;;;;4.38;3.30;;;2.90;99.90;;;;;;4995596;28;20077;-77
2020/12/25 07:47:43;;;;;;;6.32;4.00;;;3.00;99.90;;;;;;5013595;28;20100;-77
2020/12/25 07:50:09;;;;;;;4.22;3.80;;;3.00;99.90;;;;;;5011876;28;20494;-76
2020/12/25 07:52:35;;;;;;;5.60;3.95;;;2.90;99.90;;;;;;5012283;28;20033;-77
2020/12/25 07:55:00;;;;;;;4.53;3.92;;;2.90;99.90;;;;;;5012208;28;20056;-77
2020/12/25 07:57:27;;;;;;;4.38;3.95;;;2.90;99.90;;;;;;5012320;28;20542;-77
2020/12/25 07:59:55;;;;;;;6.22;4.32;;;3.10;99.90;;;;;;5014007;28;20034;-77
2020/12/25 08:02:22;;;;;;;5.68;3.45;;;3.20;99.90;;;;;;5013272;28;20114;-77
2020/12/25 08:04:48;;;;;;;4.40;3.67;;;3.20;99.90;;;;;;5013546;28;20041;-78
2020/12/25 08:07:13;;;;;;;5.20;4.28;;;3.20;99.90;;;;;;5013258;28;20026;-77
2020/12/25 08:09:40;;;;;;;5.85;4.63;;;3.10;99.90;;;;;;5012266;28;20030;-78
2020/12/25 08:12:10;;;;;;;5.05;4.03;;;3.10;99.90;;;;;;5012775;28;20026;-77
2020/12/25 08:14:42;;;;;;;7.35;5.03;;;3.20;99.90;;;;;;4995309;28;20052;-77
2020/12/25 08:17:09;;;;;;;6.53;4.93;;;3.40;99.90;;;;;;5011407;28;20104;-78
2020/12/25 08:19:35;;;;;;;9.02;6.00;;;3.50;99.90;;;;;;5012179;28;20496;-76
2020/12/25 08:22:05;;;;;;;5.57;4.80;;;3.40;99.90;;;;;;4998313;28;20503;-76
2020/12/25 08:24:31;;;;;;;5.63;4.60;;;3.50;99.90;;;;;;4992529;28;20058;-77
2020/12/25 08:27:01;;;;;;;6.22;4.65;;;3.50;99.90;;;;;;4993399;28;20095;-77
2020/12/25 08:29:35;;;;;;;5.82;4.43;;;3.50;99.90;;;;;;4992709;28;20061;-77
2020/12/25 08:32:08;;;;;;;7.25;5.03;;;3.60;99.90;;;;;;4993508;28;20029;-77
2020/12/25 08:34:34;;;;;;;6.07;4.53;;;3.80;99.90;;;;;;4992140;28;20092;-77
2020/12/25 08:37:03;;;;;;;7.88;5.25;;;3.70;99.90;;;;;;4993227;28;20526;-77
2020/12/25 08:39:30;;;;;;;6.40;5.25;;;3.70;99.90;;;;;;4992440;28;20031;-77
2020/12/25 08:41:56;;;;;;;11.60;5.95;;;3.70;99.90;;;;;;4975973;28;20034;-78
2020/12/25 08:44:22;;;;;;;10.00;5.68;;;3.70;99.90;;;;;;4992988;28;20391;-77
2020/12/25 08:46:48;;;;;;;12.75;6.38;;;3.50;99.90;;;;;;4992464;28;20022;-77
2020/12/25 08:49:29;;;;;;;7.53;5.03;;;3.50;99.90;;;;;;4993640;28;20059;-77
2020/12/25 08:51:54;;;;;;;5.30;4.68;;;3.10;99.90;;;;;;4993937;28;20076;-77
2020/12/25 08:54:28;;;;;;;6.88;5.80;;;3.10;99.90;;;;;;4992400;28;20054;-77
2020/12/25 08:56:54;;;;;;;7.00;5.57;;;3.30;99.90;;;;;;4993893;28;20021;-77
2020/12/25 08:59:22;;;;;;;5.97;5.00;;;3.40;99.90;;;;;;4975757;28;20548;-76
2020/12/25 09:01:50;;;;;;;6.57;5.20;;;3.30;99.90;;;;;;5009580;28;20030;-77
2020/12/25 09:04:22;;;;;;;9.98;6.10;;;3.10;99.90;;;;;;5012896;28;20030;-77
2020/12/25 09:06:51;;;;;;;5.88;4.65;;;3.10;99.90;;;;;;4995332;28;20025;-77
2020/12/25 09:09:17;;;;;;;6.25;4.82;;;3.20;99.90;;;;;;5012792;28;20037;-77
2020/12/25 09:11:44;;;;;;;4.10;3.67;;;3.40;99.90;;;;;;5011409;28;20022;-77
2020/12/25 09:14:09;;;;;;;6.13;4.13;;;3.50;99.90;;;;;;5011517;28;20037;-78
2020/12/25 09:16:35;;;;;;;5.13;3.95;;;3.60;99.90;;;;;;5010106;28;20022;-77
2020/12/25 09:19:01;;;;;;;5.32;4.15;;;3.60;99.90;;;;;;4991195;28;20419;-77
2020/12/25 09:21:27;;;;;;;5.97;3.55;;;3.70;99.90;;;;;;4975694;28;20394;-77
2020/12/25 09:23:56;;;;;;;5.35;4.28;;;3.60;99.90;;;;;;4993331;28;20026;-77
2020/12/25 09:26:22;;;;;;;5.55;4.47;;;3.60;99.90;;;;;;4991920;28;20479;-76
2020/12/25 09:28:49;;;;;;;8.80;3.92;;;3.70;99.90;;;;;;4991381;28;20509;-77
2020/12/25 09:31:15;;;;;;;6.05;4.10;;;3.60;99.90;;;;;;4991674;28;20069;-77
2020/12/25 09:33:41;;;;;;;7.03;4.28;;;3.70;99.90;;;;;;4991334;28;20029;-77
2020/12/25 09:36:09;;;;;;;4.72;3.95;;;3.70;99.90;;;;;;4991671;28;20065;-77
2020/12/25 09:38:37;;;;;;;6.97;3.85;;;3.50;99.90;;;;;;4992909;28;20062;-77
2020/12/25 09:41:03;;;;;;;4.47;3.78;;;3.40;99.90;;;;;;5014485;23;20042;-74
2020/12/25 09:43:29;;;;;;;13.15;4.90;;;3.40;99.90;;;;;;5011076;28;20030;-74
2020/12/25 09:45:56;;;;;;;5.85;4.15;;;3.40;99.90;;;;;;5010207;28;20022;-74
2020/12/25 09:48:22;;;;;;;4.60;3.88;;;3.30;99.90;;;;;;5008958;28;20454;-73
2020/12/25 09:50:48;;;;;;;4.70;3.45;;;3.30;99.90;;;;;;5008950;28;20046;-74
2020/12/25 09:53:13;;;;;;;7.40;4.32;;;3.20;99.90;;;;;;5010186;28;20022;-74
2020/12/25 09:55:40;;;;;;;9.13;5.40;;;3.20;99.90;;;;;;5009929;28;20025;-74
2020/12/25 09:58:07;;;;;;;13.30;7.05;;;3.30;99.90;;;;;;4995598;28;20018;-74
2020/12/25 10:00:33;;;;;;;11.48;6.65;;;3.20;99.90;;;;;;5012681;28;20029;-73
2020/12/25 10:02:59;;;;;;;12.23;5.88;;;3.10;99.90;;;;;;5013020;28;20072;-74
2020/12/25 10:05:25;;;;;;;12.13;5.68;;;3.20;99.90;;;;;;5013834;28;20029;-74
2020/12/25 10:07:52;;;;;;;6.32;4.13;;;3.30;99.90;;;;;;5014255;28;20053;-74
2020/12/25 10:10:19;;;;;;;10.05;5.13;;;3.30;99.90;;;;;;5013845;28;20053;-74
2020/12/25 10:12:50;;;;;;;9.93;4.47;;;3.30;99.90;;;;;;5014066;28;20033;-74
2020/12/25 10:15:15;;;;;;;5.70;3.45;;;3.40;99.90;;;;;;5014028;28;20041;-74
2020/12/25 10:17:41;;;;;;;5.63;2.95;;;3.50;99.90;;;;;;5013838;28;20022;-74
2020/12/25 10:20:07;;;;;;;3.85;2.95;;;3.30;99.90;;;;;;5013921;28;20030;-74
2020/12/25 10:22:33;;;;;;;4.25;3.35;;;3.30;99.90;;;;;;5013796;28;20034;-74
2020/12/25 10:24:59;;;;;;;3.53;2.50;;;3.30;99.90;;;;;;5013821;28;20032;-74
2020/12/25 10:27:25;;;;;;;6.05;3.78;;;3.30;99.90;;;;;;5013713;28;20026;-74
2020/12/25 10:29:52;;;;;;;6.88;3.30;;;3.30;99.90;;;;;;4996201;28;20042;-74
2020/12/25 10:32:17;;;;;;;4.18;2.80;;;3.30;99.90;;;;;;5012343;28;20022;-74
2020/12/25 10:34:43;;;;;;;4.20;2.80;;;3.30;99.90;;;;;;5013695;28;20026;-74
2020/12/25 10:37:09;;;;;;;5.45;3.38;;;3.30;99.90;;;;;;5014078;28;20101;-74
2020/12/25 10:39:35;;;;;;;3.35;2.47;;;3.40;99.90;;;;;;5014272;28;20044;-74
2020/12/25 10:42:05;;;;;;;5.15;2.70;;;3.30;99.90;;;;;;5013576;28;20041;-74
2020/12/25 10:44:31;;;;;;;4.10;3.03;;;3.40;99.90;;;;;;5012232;28;20037;-74
2020/12/25 10:47:00;;;;;;;5.95;3.38;;;3.40;99.90;;;;;;5012317;28;20034;-73
2020/12/25 10:49:26;;;;;;;3.53;2.70;;;3.40;99.90;;;;;;5013377;28;20022;-74
2020/12/25 10:51:52;;;;;;;6.07;3.97;;;3.30;99.90;;;;;;5013149;28;20022;-74
2020/12/25 10:54:18;;;;;;;9.10;3.95;;;3.40;99.90;;;;;;5013246;28;20359;-73
2020/12/25 10:56:43;;;;;;;2.83;2.47;;;3.50;99.90;;;;;;5012064;28;20018;-73
2020/12/25 10:59:09;;;;;;;5.55;2.90;;;3.40;99.90;;;;;;5013019;28;20076;-74
2020/12/25 11:01:35;;;;;;;3.63;2.92;;;3.50;99.90;;;;;;5013270;28;20069;-74
2020/12/25 11:04:00;;;;;;;5.95;2.88;;;3.40;99.90;;;;;;5012775;28;20030;-74
2020/12/25 11:06:31;;;;;;;3.88;2.70;;;3.40;99.90;;;;;;5012966;28;20034;-74
2020/12/25 11:08:57;;;;;;;3.72;2.45;;;3.50;99.90;;;;;;5011693;28;20025;-74
2020/12/25 11:11:33;;;;;;;5.70;3.03;;;3.50;99.90;;;;;;5011775;28;20075;-74
2020/12/25 11:13:59;;;;;;;5.90;3.63;;;3.50;99.90;;;;;;5012672;28;20030;-73
2020/12/25 11:16:36;;;;;;;5.72;3.33;;;3.40;99.90;;;;;;5012741;28;20101;-73
2020/12/25 11:19:05;;;;;;;5.53;3.20;;;3.50;99.90;;;;;;5012708;28;20116;-73
2020/12/25 11:21:32;;;;;;;5.10;3.20;;;3.50;99.90;;;;;;5012831;28;20038;-74
2020/12/25 11:24:00;;;;;;;4.78;3.30;;;3.50;99.90;;;;;;5012538;28;20026;-73
2020/12/25 11:26:28;;;;;;;4.50;2.90;;;3.60;99.90;;;;;;5012532;28;20025;-74
2020/12/25 11:28:55;;;;;;;5.40;3.88;;;3.70;99.90;;;;;;5011105;28;20544;-73
2020/12/25 11:31:22;;;;;;;4.07;3.40;;;3.70;99.90;;;;;;5012622;28;20026;-74
2020/12/25 11:33:49;;;;;;;5.32;3.03;;;3.70;99.90;;;;;;5012248;28;20049;-73
2020/12/25 11:36:29;;;;;;;4.13;2.95;;;3.50;99.90;;;;;;5012403;28;20014;-74
2020/12/25 11:38:55;;;;;;;6.03;2.63;;;3.70;99.90;;;;;;5012319;28;20084;-74
2020/12/25 11:41:22;;;;;;;6.95;3.80;;;3.80;99.90;;;;;;5012361;28;20040;-74
2020/12/25 11:43:49;;;;;;;7.10;4.28;;;3.80;99.90;;;;;;5010977;28;20109;-74
2020/12/25 11:46:15;;;;;;;4.40;3.28;;;3.90;99.90;;;;;;5012259;28;20500;-73
2020/12/25 11:48:42;;;;;;;5.70;4.10;;;3.90;99.90;;;;;;5011166;28;20481;-73
2020/12/25 11:51:08;;;;;;;6.25;4.05;;;3.90;99.90;;;;;;5012034;28;20470;-73
2020/12/25 11:53:37;;;;;;;4.15;2.60;;;3.90;99.90;;;;;;5012514;28;20100;-74
2020/12/25 11:56:04;;;;;;;3.15;2.60;;;4.00;99.90;;;;;;5011888;28;20033;-74
2020/12/25 11:58:30;;;;;;;5.20;3.75;;;3.90;99.90;;;;;;5012250;28;20026;-74
2020/12/25 12:00:58;;;;;;;4.97;3.22;;;3.90;99.90;;;;;;5011920;28;20055;-74
2020/12/25 12:03:25;;;;;;;5.60;2.30;;;3.90;99.90;;;;;;5010863;28;20038;-73
2020/12/25 12:05:51;;;;;;;4.68;2.70;;;3.70;99.90;;;;;;5012012;28;20037;-74
2020/12/25 12:08:17;;;;;;;5.90;3.00;;;3.70;99.90;;;;;;5013208;28;20033;-74
2020/12/25 12:10:42;;;;;;;6.32;3.38;;;3.80;99.90;;;;;;5011796;28;20072;-74
2020/12/25 12:13:08;;;;;;;7.85;4.78;;;3.70;99.90;;;;;;5012066;28;20112;-74
2020/12/25 12:15:38;;;;;;;6.53;3.72;;;3.70;99.90;;;;;;5010320;28;20022;-74
2020/12/25 12:18:05;;;;;;;4.15;3.38;;;3.60;99.90;;;;;;5011121;28;20018;-74
2020/12/25 12:20:31;;;;;;;9.52;4.05;;;3.70;99.90;;;;;;5011883;28;20712;-74
2020/12/25 12:22:56;;;;;;;7.15;4.38;;;3.60;99.90;;;;;;5012190;28;20080;-74
2020/12/25 12:25:22;;;;;;;4.65;3.45;;;3.60;99.90;;;;;;5011754;28;20340;-74
2020/12/25 12:27:48;;;;;;;8.23;4.93;;;3.40;99.90;;;;;;5011869;28;20018;-74
2020/12/25 12:30:13;;;;;;;7.40;3.95;;;3.40;99.90;;;;;;5011545;28;20033;-74
2020/12/25 12:32:39;;;;;;;7.95;4.47;;;3.30;99.90;;;;;;5011494;28;20084;-74
2020/12/25 12:35:05;;;;;;;6.90;4.38;;;3.20;99.90;;;;;;5011520;28;20030;-74
2020/12/25 12:37:31;;;;;;;5.97;4.32;;;3.20;99.90;;;;;;5010160;28;20096;-74
2020/12/25 12:39:56;;;;;;;12.10;6.15;;;3.40;99.90;;;;;;5011493;28;20034;-74
2020/12/25 12:42:22;;;;;;;11.90;6.00;;;3.40;99.90;;;;;;5010237;28;20382;-73
2020/12/25 12:44:49;;;;;;;18.90;6.57;;;3.40;99.90;;;;;;5011341;28;20121;-73
2020/12/25 12:47:15;;;;;;;20.35;7.57;;;3.50;99.90;;;;;;5011169;28;20025;-74
2020/12/25 12:49:42;;;;;;;19.88;7.50;;;3.70;99.90;;;;;;5011271;28;20137;-73
2020/12/25 12:52:08;;;;;;;8.65;4.18;;;3.70;99.90;;;;;;5011141;28;20360;-73
2020/12/25 12:54:37;;;;;;;10.57;4.03;;;3.50;99.90;;;;;;5011157;28;20415;-73